sensor_id;sensor_type;location;lat;lon;timestamp;P1;durP1;ratioP1;P2;durP2;ratioP2
39654;SDS011;25336;59.944;11.010;2022-09-21T00:01:03;1.70;;;1.52;;
39654;SDS011;25336;59.944;11.010;2022-09-21T00:03:36;2.72;;;1.80;;
39654;SDS011;25336;59.944;11.010;2022-09-21T00:06:05;2.60;;;1.83;;
39654;SDS011;25336;59.944;11.010;2022-09-21T00:08:36;2.10;;;1.90;;
39654;SDS011;25336;59.944;11.010;2022-09-21T00:11:02;4.32;;;1.90;;
39654;SDS011;25336;59.944;11.010;2022-09-21T00:13:29;2.00;;;1.90;;
39654;SDS011;25336;59.944;11.010;2022-09-21T00:15:57;3.70;;;2.20;;
39654;SDS011;25336;59.944;11.010;2022-09-21T00:18:23;2.22;;;2.03;;
39654;SDS011;25336;59.944;11.010;2022-09-21T00:20:49;4.30;;;2.25;;
39654;SDS011;25336;59.944;11.010;2022-09-21T00:23:18;2.47;;;2.28;;
39654;SDS011;25336;59.944;11.010;2022-09-21T00:25:44;2.88;;;2.28;;
39654;SDS011;25336;59.944;11.010;2022-09-21T00:28:10;2.95;;;2.35;;
39654;SDS011;25336;59.944;11.010;2022-09-21T00:30:37;2.50;;;2.30;;
39654;SDS011;25336;59.944;11.010;2022-09-21T00:33:03;3.75;;;2.20;;
39654;SDS011;25336;59.944;11.010;2022-09-21T00:35:28;2.67;;;2.38;;
39654;SDS011;25336;59.944;11.010;2022-09-21T00:37:54;2.75;;;2.30;;
39654;SDS011;25336;59.944;11.010;2022-09-21T00:40:20;2.85;;;2.47;;
39654;SDS011;25336;59.944;11.010;2022-09-21T00:42:45;2.13;;;1.92;;
39654;SDS011;25336;59.944;11.010;2022-09-21T00:45:11;3.10;;;2.03;;
39654;SDS011;25336;59.944;11.010;2022-09-21T00:47:45;2.08;;;1.85;;
39654;SDS011;25336;59.944;11.010;2022-09-21T00:50:15;2.20;;;2.00;;
39654;SDS011;25336;59.944;11.010;2022-09-21T00:52:44;2.00;;;1.80;;
39654;SDS011;25336;59.944;11.010;2022-09-21T00:57:45;2.88;;;1.92;;
39654;SDS011;25336;59.944;11.010;2022-09-21T01:00:15;3.97;;;2.10;;
39654;SDS011;25336;59.944;11.010;2022-09-21T01:02:41;3.70;;;2.00;;
39654;SDS011;25336;59.944;11.010;2022-09-21T01:05:07;6.97;;;2.08;;
39654;SDS011;25336;59.944;11.010;2022-09-21T01:07:35;3.50;;;2.30;;
39654;SDS011;25336;59.944;11.010;2022-09-21T01:10:08;2.38;;;1.52;;
39654;SDS011;25336;59.944;11.010;2022-09-21T01:31:44;1.60;;;1.50;;
39654;SDS011;25336;59.944;11.010;2022-09-21T01:34:23;3.63;;;1.40;;
39654;SDS011;25336;59.944;11.010;2022-09-21T01:36:57;2.67;;;1.88;;
39654;SDS011;25336;59.944;11.010;2022-09-21T01:39:26;5.60;;;2.00;;
39654;SDS011;25336;59.944;11.010;2022-09-21T01:41:53;3.55;;;1.80;;
39654;SDS011;25336;59.944;11.010;2022-09-21T01:44:22;3.55;;;1.95;;
39654;SDS011;25336;59.944;11.010;2022-09-21T01:46:51;2.55;;;1.60;;
39654;SDS011;25336;59.944;11.010;2022-09-21T01:49:29;1.55;;;1.40;;
39654;SDS011;25336;59.944;11.010;2022-09-21T01:52:06;1.58;;;1.48;;
39654;SDS011;25336;59.944;11.010;2022-09-21T01:54:51;1.55;;;1.45;;
39654;SDS011;25336;59.944;11.010;2022-09-21T01:58:05;1.60;;;1.50;;
39654;SDS011;25336;59.944;11.010;2022-09-21T02:00:32;1.92;;;1.30;;
39654;SDS011;25336;59.944;11.010;2022-09-21T02:03:03;1.48;;;1.25;;
39654;SDS011;25336;59.944;11.010;2022-09-21T02:05:41;2.10;;;1.23;;
39654;SDS011;25336;59.944;11.010;2022-09-21T02:08:08;1.45;;;1.00;;
39654;SDS011;25336;59.944;11.010;2022-09-21T02:10:39;1.45;;;1.17;;
39654;SDS011;25336;59.944;11.010;2022-09-21T02:13:09;1.38;;;1.20;;
39654;SDS011;25336;59.944;11.010;2022-09-21T02:15:46;1.20;;;1.10;;
39654;SDS011;25336;59.944;11.010;2022-09-21T02:18:23;1.73;;;1.30;;
39654;SDS011;25336;59.944;11.010;2022-09-21T02:21:04;3.88;;;1.20;;
39654;SDS011;25336;59.944;11.010;2022-09-21T02:26:18;1.73;;;1.08;;
39654;SDS011;25336;59.944;11.010;2022-09-21T02:34:42;1.45;;;1.35;;
39654;SDS011;25336;59.944;11.010;2022-09-21T02:40:06;3.57;;;1.40;;
39654;SDS011;25336;59.944;11.010;2022-09-21T02:42:36;1.40;;;1.30;;
39654;SDS011;25336;59.944;11.010;2022-09-21T02:45:12;3.42;;;1.30;;
39654;SDS011;25336;59.944;11.010;2022-09-21T02:47:49;1.20;;;1.08;;
39654;SDS011;25336;59.944;11.010;2022-09-21T02:51:06;1.50;;;1.10;;
39654;SDS011;25336;59.944;11.010;2022-09-21T02:53:40;1.58;;;1.15;;
39654;SDS011;25336;59.944;11.010;2022-09-21T02:56:08;1.38;;;1.27;;
39654;SDS011;25336;59.944;11.010;2022-09-21T02:58:38;1.35;;;1.10;;
39654;SDS011;25336;59.944;11.010;2022-09-21T03:01:09;1.40;;;1.25;;
39654;SDS011;25336;59.944;11.010;2022-09-21T03:03:36;1.10;;;1.10;;
39654;SDS011;25336;59.944;11.010;2022-09-21T03:06:02;1.00;;;1.00;;
39654;SDS011;25336;59.944;11.010;2022-09-21T03:08:27;2.28;;;0.90;;
39654;SDS011;25336;59.944;11.010;2022-09-21T03:10:54;1.00;;;1.00;;
39654;SDS011;25336;59.944;11.010;2022-09-21T03:13:21;1.20;;;1.10;;
39654;SDS011;25336;59.944;11.010;2022-09-21T03:15:48;1.17;;;1.08;;
39654;SDS011;25336;59.944;11.010;2022-09-21T03:18:14;1.27;;;1.10;;
39654;SDS011;25336;59.944;11.010;2022-09-21T03:20:41;0.98;;;0.98;;
39654;SDS011;25336;59.944;11.010;2022-09-21T03:23:10;1.73;;;1.10;;
39654;SDS011;25336;59.944;11.010;2022-09-21T03:25:36;0.82;;;0.82;;
39654;SDS011;25336;59.944;11.010;2022-09-21T03:28:02;2.60;;;1.10;;
39654;SDS011;25336;59.944;11.010;2022-09-21T03:30:27;1.35;;;0.90;;
39654;SDS011;25336;59.944;11.010;2022-09-21T03:32:54;1.17;;;1.08;;
39654;SDS011;25336;59.944;11.010;2022-09-21T03:35:22;1.35;;;1.25;;
39654;SDS011;25336;59.944;11.010;2022-09-21T03:37:50;1.60;;;1.50;;
39654;SDS011;25336;59.944;11.010;2022-09-21T03:40:16;2.13;;;1.60;;
39654;SDS011;25336;59.944;11.010;2022-09-21T03:42:43;1.50;;;1.40;;
39654;SDS011;25336;59.944;11.010;2022-09-21T03:45:09;3.10;;;1.30;;
39654;SDS011;25336;59.944;11.010;2022-09-21T03:47:36;1.23;;;1.13;;
39654;SDS011;25336;59.944;11.010;2022-09-21T03:50:04;2.10;;;1.48;;
39654;SDS011;25336;59.944;11.010;2022-09-21T03:52:31;1.38;;;1.27;;
39654;SDS011;25336;59.944;11.010;2022-09-21T03:54:56;1.40;;;1.30;;
39654;SDS011;25336;59.944;11.010;2022-09-21T03:57:22;3.20;;;1.48;;
39654;SDS011;25336;59.944;11.010;2022-09-21T03:59:48;1.15;;;1.15;;
39654;SDS011;25336;59.944;11.010;2022-09-21T04:02:14;1.40;;;1.30;;
39654;SDS011;25336;59.944;11.010;2022-09-21T04:04:40;1.35;;;1.23;;
39654;SDS011;25336;59.944;11.010;2022-09-21T04:07:06;1.45;;;1.35;;
39654;SDS011;25336;59.944;11.010;2022-09-21T04:09:32;1.27;;;1.17;;
39654;SDS011;25336;59.944;11.010;2022-09-21T04:11:57;1.40;;;1.30;;
39654;SDS011;25336;59.944;11.010;2022-09-21T04:14:23;2.58;;;1.10;;
39654;SDS011;25336;59.944;11.010;2022-09-21T04:16:49;1.58;;;1.20;;
39654;SDS011;25336;59.944;11.010;2022-09-21T04:19:16;1.30;;;1.20;;
39654;SDS011;25336;59.944;11.010;2022-09-21T04:21:42;1.38;;;1.13;;
39654;SDS011;25336;59.944;11.010;2022-09-21T04:24:07;1.40;;;1.30;;
39654;SDS011;25336;59.944;11.010;2022-09-21T04:26:34;4.03;;;1.38;;
39654;SDS011;25336;59.944;11.010;2022-09-21T04:29:00;1.20;;;1.05;;
39654;SDS011;25336;59.944;11.010;2022-09-21T04:31:27;1.55;;;1.42;;
39654;SDS011;25336;59.944;11.010;2022-09-21T04:33:54;1.00;;;1.00;;
39654;SDS011;25336;59.944;11.010;2022-09-21T04:36:21;1.30;;;1.20;;
39654;SDS011;25336;59.944;11.010;2022-09-21T04:38:48;1.00;;;1.00;;
39654;SDS011;25336;59.944;11.010;2022-09-21T04:41:14;1.08;;;1.08;;
39654;SDS011;25336;59.944;11.010;2022-09-21T04:43:40;1.85;;;0.90;;
39654;SDS011;25336;59.944;11.010;2022-09-21T04:46:11;0.80;;;0.80;;
39654;SDS011;25336;59.944;11.010;2022-09-21T04:48:38;4.32;;;1.08;;
39654;SDS011;25336;59.944;11.010;2022-09-21T04:51:05;0.90;;;0.90;;
39654;SDS011;25336;59.944;11.010;2022-09-21T04:53:35;2.35;;;1.20;;
39654;SDS011;25336;59.944;11.010;2022-09-21T04:56:02;1.17;;;1.08;;
39654;SDS011;25336;59.944;11.010;2022-09-21T04:58:29;1.02;;;1.02;;
39654;SDS011;25336;59.944;11.010;2022-09-21T05:00:56;1.80;;;1.58;;
39654;SDS011;25336;59.944;11.010;2022-09-21T05:03:22;1.95;;;1.52;;
39654;SDS011;25336;59.944;11.010;2022-09-21T05:05:49;1.92;;;1.17;;
39654;SDS011;25336;59.944;11.010;2022-09-21T05:08:16;1.13;;;1.08;;
39654;SDS011;25336;59.944;11.010;2022-09-21T05:11:03;4.40;;;1.20;;
39654;SDS011;25336;59.944;11.010;2022-09-21T05:13:30;1.40;;;1.30;;
39654;SDS011;25336;59.944;11.010;2022-09-21T05:15:55;1.42;;;1.33;;
39654;SDS011;25336;59.944;11.010;2022-09-21T05:18:21;1.55;;;1.45;;
39654;SDS011;25336;59.944;11.010;2022-09-21T05:20:56;1.02;;;1.00;;
39654;SDS011;25336;59.944;11.010;2022-09-21T05:23:23;1.05;;;1.05;;
39654;SDS011;25336;59.944;11.010;2022-09-21T05:25:50;3.20;;;1.20;;
39654;SDS011;25336;59.944;11.010;2022-09-21T05:28:16;1.10;;;1.10;;
39654;SDS011;25336;59.944;11.010;2022-09-21T05:30:47;6.93;;;1.40;;
39654;SDS011;25336;59.944;11.010;2022-09-21T05:33:23;1.73;;;1.10;;
39654;SDS011;25336;59.944;11.010;2022-09-21T05:35:58;1.60;;;1.10;;
39654;SDS011;25336;59.944;11.010;2022-09-21T05:38:43;5.32;;;1.50;;
39654;SDS011;25336;59.944;11.010;2022-09-21T05:41:10;1.50;;;1.40;;
39654;SDS011;25336;59.944;11.010;2022-09-21T05:43:35;1.83;;;1.60;;
39654;SDS011;25336;59.944;11.010;2022-09-21T05:46:02;4.70;;;1.92;;
39654;SDS011;25336;59.944;11.010;2022-09-21T05:48:59;1.70;;;1.58;;
39654;SDS011;25336;59.944;11.010;2022-09-21T06:05:14;4.13;;;1.73;;
39654;SDS011;25336;59.944;11.010;2022-09-21T06:07:40;1.77;;;1.40;;
39654;SDS011;25336;59.944;11.010;2022-09-21T06:10:06;2.33;;;1.63;;
39654;SDS011;25336;59.944;11.010;2022-09-21T06:12:33;3.15;;;1.92;;
39654;SDS011;25336;59.944;11.010;2022-09-21T06:14:59;2.08;;;1.52;;
39654;SDS011;25336;59.944;11.010;2022-09-21T06:17:24;1.30;;;1.20;;
39654;SDS011;25336;59.944;11.010;2022-09-21T06:19:51;3.38;;;1.60;;
39654;SDS011;25336;59.944;11.010;2022-09-21T06:22:17;3.75;;;1.77;;
39654;SDS011;25336;59.944;11.010;2022-09-21T06:24:43;1.45;;;1.35;;
39654;SDS011;25336;59.944;11.010;2022-09-21T06:27:09;2.20;;;1.40;;
39654;SDS011;25336;59.944;11.010;2022-09-21T06:29:35;4.13;;;1.73;;
39654;SDS011;25336;59.944;11.010;2022-09-21T06:32:01;1.50;;;1.40;;
39654;SDS011;25336;59.944;11.010;2022-09-21T06:34:28;3.25;;;1.95;;
39654;SDS011;25336;59.944;11.010;2022-09-21T06:36:53;1.65;;;1.20;;
39654;SDS011;25336;59.944;11.010;2022-09-21T06:39:19;3.60;;;1.48;;
39654;SDS011;25336;59.944;11.010;2022-09-21T06:41:45;1.50;;;1.23;;
39654;SDS011;25336;59.944;11.010;2022-09-21T06:44:10;2.42;;;2.17;;
39654;SDS011;25336;59.944;11.010;2022-09-21T06:46:36;3.22;;;1.65;;
39654;SDS011;25336;59.944;11.010;2022-09-21T06:49:01;9.82;;;2.55;;
39654;SDS011;25336;59.944;11.010;2022-09-21T06:51:27;3.53;;;2.25;;
39654;SDS011;25336;59.944;11.010;2022-09-21T06:53:53;2.00;;;1.67;;
39654;SDS011;25336;59.944;11.010;2022-09-21T06:56:20;1.98;;;1.80;;
39654;SDS011;25336;59.944;11.010;2022-09-21T06:58:46;2.63;;;1.92;;
39654;SDS011;25336;59.944;11.010;2022-09-21T07:01:12;4.20;;;1.80;;
39654;SDS011;25336;59.944;11.010;2022-09-21T07:03:40;2.42;;;1.83;;
39654;SDS011;25336;59.944;11.010;2022-09-21T07:06:07;4.57;;;2.10;;
39654;SDS011;25336;59.944;11.010;2022-09-21T07:08:35;4.47;;;1.92;;
39654;SDS011;25336;59.944;11.010;2022-09-21T07:11:02;3.20;;;1.80;;
39654;SDS011;25336;59.944;11.010;2022-09-21T07:13:28;1.67;;;1.58;;
39654;SDS011;25336;59.944;11.010;2022-09-21T07:15:54;2.05;;;1.90;;
39654;SDS011;25336;59.944;11.010;2022-09-21T07:18:19;1.55;;;1.45;;
39654;SDS011;25336;59.944;11.010;2022-09-21T07:20:45;6.85;;;1.75;;
39654;SDS011;25336;59.944;11.010;2022-09-21T07:23:15;1.65;;;1.55;;
39654;SDS011;25336;59.944;11.010;2022-09-21T07:25:43;3.33;;;1.35;;
39654;SDS011;25336;59.944;11.010;2022-09-21T07:28:11;5.70;;;2.13;;
39654;SDS011;25336;59.944;11.010;2022-09-21T07:30:37;2.33;;;1.77;;
39654;SDS011;25336;59.944;11.010;2022-09-21T07:33:04;3.17;;;2.30;;
39654;SDS011;25336;59.944;11.010;2022-09-21T07:35:31;5.82;;;2.33;;
39654;SDS011;25336;59.944;11.010;2022-09-21T07:38:00;2.25;;;2.08;;
39654;SDS011;25336;59.944;11.010;2022-09-21T07:40:27;2.63;;;1.92;;
39654;SDS011;25336;59.944;11.010;2022-09-21T07:42:56;4.03;;;2.05;;
39654;SDS011;25336;59.944;11.010;2022-09-21T07:45:22;3.75;;;2.10;;
39654;SDS011;25336;59.944;11.010;2022-09-21T07:47:49;5.38;;;2.13;;
39654;SDS011;25336;59.944;11.010;2022-09-21T07:50:21;2.03;;;1.80;;
39654;SDS011;25336;59.944;11.010;2022-09-21T07:52:47;2.53;;;1.80;;
39654;SDS011;25336;59.944;11.010;2022-09-21T07:55:13;7.45;;;1.85;;
39654;SDS011;25336;59.944;11.010;2022-09-21T07:57:39;2.53;;;2.22;;
39654;SDS011;25336;59.944;11.010;2022-09-21T08:00:24;3.50;;;2.63;;
39654;SDS011;25336;59.944;11.010;2022-09-21T08:02:49;6.85;;;2.35;;
39654;SDS011;25336;59.944;11.010;2022-09-21T08:05:15;3.33;;;2.40;;
39654;SDS011;25336;59.944;11.010;2022-09-21T08:07:41;2.72;;;2.00;;
39654;SDS011;25336;59.944;11.010;2022-09-21T08:10:07;4.18;;;1.95;;
39654;SDS011;25336;59.944;11.010;2022-09-21T08:12:33;5.30;;;1.92;;
39654;SDS011;25336;59.944;11.010;2022-09-21T08:14:58;2.78;;;2.38;;
39654;SDS011;25336;59.944;11.010;2022-09-21T08:17:24;10.05;;;5.80;;
39654;SDS011;25336;59.944;11.010;2022-09-21T08:19:49;5.07;;;2.95;;
39654;SDS011;25336;59.944;11.010;2022-09-21T08:22:15;7.28;;;2.80;;
39654;SDS011;25336;59.944;11.010;2022-09-21T08:24:41;3.60;;;3.30;;
39654;SDS011;25336;59.944;11.010;2022-09-21T08:27:08;5.25;;;3.08;;
39654;SDS011;25336;59.944;11.010;2022-09-21T08:29:34;9.98;;;2.60;;
39654;SDS011;25336;59.944;11.010;2022-09-21T08:32:00;7.53;;;3.03;;
39654;SDS011;25336;59.944;11.010;2022-09-21T08:34:26;5.05;;;2.38;;
39654;SDS011;25336;59.944;11.010;2022-09-21T08:36:53;5.97;;;2.30;;
39654;SDS011;25336;59.944;11.010;2022-09-21T08:39:18;4.57;;;2.30;;
39654;SDS011;25336;59.944;11.010;2022-09-21T08:44:58;2.00;;;1.90;;
39654;SDS011;25336;59.944;11.010;2022-09-21T08:47:38;4.87;;;1.90;;
39654;SDS011;25336;59.944;11.010;2022-09-21T08:50:36;6.35;;;1.95;;
39654;SDS011;25336;59.944;11.010;2022-09-21T08:53:15;5.57;;;2.88;;
39654;SDS011;25336;59.944;11.010;2022-09-21T08:55:46;4.68;;;2.10;;
39654;SDS011;25336;59.944;11.010;2022-09-21T08:58:24;6.15;;;1.90;;
39654;SDS011;25336;59.944;11.010;2022-09-21T09:01:04;2.60;;;1.60;;
39654;SDS011;25336;59.944;11.010;2022-09-21T09:06:15;5.38;;;1.80;;
39654;SDS011;25336;59.944;11.010;2022-09-21T09:08:57;3.67;;;2.40;;
39654;SDS011;25336;59.944;11.010;2022-09-21T09:16:43;2.70;;;1.73;;
39654;SDS011;25336;59.944;11.010;2022-09-21T09:19:37;5.38;;;2.05;;
39654;SDS011;25336;59.944;11.010;2022-09-21T09:22:05;5.22;;;2.03;;
39654;SDS011;25336;59.944;11.010;2022-09-21T09:24:40;5.53;;;2.20;;
39654;SDS011;25336;59.944;11.010;2022-09-21T09:27:15;4.68;;;2.75;;
39654;SDS011;25336;59.944;11.010;2022-09-21T09:32:33;4.13;;;1.65;;
39654;SDS011;25336;59.944;11.010;2022-09-21T09:37:49;5.18;;;2.17;;
39654;SDS011;25336;59.944;11.010;2022-09-21T09:40:18;2.53;;;1.80;;
39654;SDS011;25336;59.944;11.010;2022-09-21T09:48:28;2.40;;;2.20;;
39654;SDS011;25336;59.944;11.010;2022-09-21T09:51:08;3.72;;;1.95;;
39654;SDS011;25336;59.944;11.010;2022-09-21T09:53:36;4.13;;;1.90;;
39654;SDS011;25336;59.944;11.010;2022-09-21T09:56:02;2.17;;;1.90;;
39654;SDS011;25336;59.944;11.010;2022-09-21T10:04:16;2.85;;;1.60;;
39654;SDS011;25336;59.944;11.010;2022-09-21T10:06:42;2.42;;;1.85;;
39654;SDS011;25336;59.944;11.010;2022-09-21T10:12:03;1.70;;;1.60;;
39654;SDS011;25336;59.944;11.010;2022-09-21T10:14:47;1.42;;;1.33;;
39654;SDS011;25336;59.944;11.010;2022-09-21T10:17:17;2.78;;;1.77;;
39654;SDS011;25336;59.944;11.010;2022-09-21T10:19:43;1.52;;;1.30;;
39654;SDS011;25336;59.944;11.010;2022-09-21T10:22:19;2.80;;;2.30;;
39654;SDS011;25336;59.944;11.010;2022-09-21T10:24:50;2.80;;;1.55;;
39654;SDS011;25336;59.944;11.010;2022-09-21T10:27:44;4.68;;;2.65;;
39654;SDS011;25336;59.944;11.010;2022-09-21T10:30:31;3.17;;;1.67;;
39654;SDS011;25336;59.944;11.010;2022-09-21T10:32:59;3.25;;;1.67;;
39654;SDS011;25336;59.944;11.010;2022-09-21T10:35:25;4.10;;;1.55;;
39654;SDS011;25336;59.944;11.010;2022-09-21T10:38:07;3.08;;;1.33;;
39654;SDS011;25336;59.944;11.010;2022-09-21T10:40:41;4.18;;;1.60;;
39654;SDS011;25336;59.944;11.010;2022-09-21T10:43:19;1.75;;;1.55;;
39654;SDS011;25336;59.944;11.010;2022-09-21T10:45:56;1.48;;;1.38;;
39654;SDS011;25336;59.944;11.010;2022-09-21T10:48:23;3.55;;;1.52;;
39654;SDS011;25336;59.944;11.010;2022-09-21T10:50:51;1.45;;;1.20;;
39654;SDS011;25336;59.944;11.010;2022-09-21T10:56:04;1.42;;;1.10;;
39654;SDS011;25336;59.944;11.010;2022-09-21T10:58:36;3.13;;;1.27;;
39654;SDS011;25336;59.944;11.010;2022-09-21T11:01:14;1.20;;;1.10;;
39654;SDS011;25336;59.944;11.010;2022-09-21T11:03:57;2.65;;;1.20;;
39654;SDS011;25336;59.944;11.010;2022-09-21T11:06:40;3.92;;;1.10;;
39654;SDS011;25336;59.944;11.010;2022-09-21T11:09:44;2.53;;;0.90;;
39654;SDS011;25336;59.944;11.010;2022-09-21T11:14:58;3.25;;;1.10;;
39654;SDS011;25336;59.944;11.010;2022-09-21T11:28:12;1.60;;;1.00;;
39654;SDS011;25336;59.944;11.010;2022-09-21T11:36:17;2.95;;;1.77;;
39654;SDS011;25336;59.944;11.010;2022-09-21T11:58:38;0.68;;;0.68;;
39654;SDS011;25336;59.944;11.010;2022-09-21T12:12:56;2.45;;;1.40;;
39654;SDS011;25336;59.944;11.010;2022-09-21T12:15:52;1.58;;;0.82;;
39654;SDS011;25336;59.944;11.010;2022-09-21T12:21:24;1.40;;;0.93;;
39654;SDS011;25336;59.944;11.010;2022-09-21T12:24:16;1.77;;;1.17;;
39654;SDS011;25336;59.944;11.010;2022-09-21T12:26:47;3.63;;;1.00;;
39654;SDS011;25336;59.944;11.010;2022-09-21T12:29:24;2.95;;;0.75;;
39654;SDS011;25336;59.944;11.010;2022-09-21T12:42:50;3.80;;;1.35;;
39654;SDS011;25336;59.944;11.010;2022-09-21T12:45:31;1.80;;;1.10;;
39654;SDS011;25336;59.944;11.010;2022-09-21T12:53:55;1.00;;;0.73;;
39654;SDS011;25336;59.944;11.010;2022-09-21T13:07:27;1.30;;;0.90;;
39654;SDS011;25336;59.944;11.010;2022-09-21T13:15:22;2.13;;;0.90;;
39654;SDS011;25336;59.944;11.010;2022-09-21T13:17:56;1.88;;;0.73;;
39654;SDS011;25336;59.944;11.010;2022-09-21T13:20:31;2.05;;;1.25;;
39654;SDS011;25336;59.944;11.010;2022-09-21T13:23:02;0.95;;;0.70;;
39654;SDS011;25336;59.944;11.010;2022-09-21T13:25:29;2.63;;;0.88;;
39654;SDS011;25336;59.944;11.010;2022-09-21T13:43:58;3.60;;;0.82;;
39654;SDS011;25336;59.944;11.010;2022-09-21T13:54:46;3.53;;;1.30;;
39654;SDS011;25336;59.944;11.010;2022-09-21T14:08:01;1.40;;;0.90;;
39654;SDS011;25336;59.944;11.010;2022-09-21T14:10:31;1.70;;;0.90;;
39654;SDS011;25336;59.944;11.010;2022-09-21T14:13:01;2.20;;;0.97;;
39654;SDS011;25336;59.944;11.010;2022-09-21T14:15:35;5.00;;;1.50;;
39654;SDS011;25336;59.944;11.010;2022-09-21T14:18:17;2.47;;;1.23;;
39654;SDS011;25336;59.944;11.010;2022-09-21T14:23:35;1.50;;;1.00;;
39654;SDS011;25336;59.944;11.010;2022-09-21T14:26:18;4.45;;;1.50;;
39654;SDS011;25336;59.944;11.010;2022-09-21T14:28:56;3.17;;;1.02;;
39654;SDS011;25336;59.944;11.010;2022-09-21T14:31:27;3.42;;;1.00;;
39654;SDS011;25336;59.944;11.010;2022-09-21T14:33:57;3.53;;;1.50;;
39654;SDS011;25336;59.944;11.010;2022-09-21T14:36:35;2.72;;;1.23;;
39654;SDS011;25336;59.944;11.010;2022-09-21T14:39:06;1.67;;;1.02;;
39654;SDS011;25336;59.944;11.010;2022-09-21T14:41:43;2.85;;;1.33;;
39654;SDS011;25336;59.944;11.010;2022-09-21T14:44:17;2.95;;;0.93;;
39654;SDS011;25336;59.944;11.010;2022-09-21T14:52:02;2.88;;;1.33;;
39654;SDS011;25336;59.944;11.010;2022-09-21T15:00:39;4.80;;;1.30;;
39654;SDS011;25336;59.944;11.010;2022-09-21T15:12:11;2.05;;;0.90;;
39654;SDS011;25336;59.944;11.010;2022-09-21T15:14:43;1.08;;;0.50;;
39654;SDS011;25336;59.944;11.010;2022-09-21T15:17:31;0.50;;;0.50;;
39654;SDS011;25336;59.944;11.010;2022-09-21T15:19:58;2.97;;;0.73;;
39654;SDS011;25336;59.944;11.010;2022-09-21T15:22:25;1.23;;;0.70;;
39654;SDS011;25336;59.944;11.010;2022-09-21T15:24:55;1.58;;;1.10;;
39654;SDS011;25336;59.944;11.010;2022-09-21T15:27:26;0.88;;;0.68;;
39654;SDS011;25336;59.944;11.010;2022-09-21T15:30:00;1.90;;;0.63;;
39654;SDS011;25336;59.944;11.010;2022-09-21T15:32:43;0.50;;;0.50;;
39654;SDS011;25336;59.944;11.010;2022-09-21T15:35:30;0.68;;;0.65;;
39654;SDS011;25336;59.944;11.010;2022-09-21T15:37:57;1.83;;;0.60;;
39654;SDS011;25336;59.944;11.010;2022-09-21T15:48:22;1.45;;;0.88;;
39654;SDS011;25336;59.944;11.010;2022-09-21T15:50:50;2.75;;;0.77;;
39654;SDS011;25336;59.944;11.010;2022-09-21T15:53:47;1.50;;;0.90;;
39654;SDS011;25336;59.944;11.010;2022-09-21T15:56:23;1.50;;;1.10;;
39654;SDS011;25336;59.944;11.010;2022-09-21T15:58:50;1.02;;;0.80;;
39654;SDS011;25336;59.944;11.010;2022-09-21T16:01:23;4.32;;;2.90;;
39654;SDS011;25336;59.944;11.010;2022-09-21T16:04:11;1.85;;;1.33;;
39654;SDS011;25336;59.944;11.010;2022-09-21T16:06:46;1.88;;;0.70;;
39654;SDS011;25336;59.944;11.010;2022-09-21T16:11:51;1.75;;;0.70;;
39654;SDS011;25336;59.944;11.010;2022-09-21T16:14:17;1.45;;;0.82;;
39654;SDS011;25336;59.944;11.010;2022-09-21T16:19:41;1.30;;;1.13;;
39654;SDS011;25336;59.944;11.010;2022-09-21T16:25:38;1.40;;;1.30;;
39654;SDS011;25336;59.944;11.010;2022-09-21T16:28:24;4.18;;;2.08;;
39654;SDS011;25336;59.944;11.010;2022-09-21T16:30:50;11.60;;;3.90;;
39654;SDS011;25336;59.944;11.010;2022-09-21T16:38:58;10.95;;;2.35;;
39654;SDS011;25336;59.944;11.010;2022-09-21T16:44:10;3.55;;;1.40;;
39654;SDS011;25336;59.944;11.010;2022-09-21T16:46:44;5.95;;;1.25;;
39654;SDS011;25336;59.944;11.010;2022-09-21T16:49:12;7.22;;;1.20;;
39654;SDS011;25336;59.944;11.010;2022-09-21T16:51:42;1.13;;;0.90;;
39654;SDS011;25336;59.944;11.010;2022-09-21T16:54:10;1.40;;;0.82;;
39654;SDS011;25336;59.944;11.010;2022-09-21T16:56:36;0.60;;;0.60;;
39654;SDS011;25336;59.944;11.010;2022-09-21T16:59:04;4.20;;;1.10;;
39654;SDS011;25336;59.944;11.010;2022-09-21T17:01:36;1.83;;;0.68;;
39654;SDS011;25336;59.944;11.010;2022-09-21T17:04:01;2.15;;;0.77;;
39654;SDS011;25336;59.944;11.010;2022-09-21T17:06:27;1.50;;;0.93;;
39654;SDS011;25336;59.944;11.010;2022-09-21T17:08:52;0.77;;;0.73;;
39654;SDS011;25336;59.944;11.010;2022-09-21T17:11:18;1.55;;;0.90;;
39654;SDS011;25336;59.944;11.010;2022-09-21T17:13:47;1.90;;;1.13;;
39654;SDS011;25336;59.944;11.010;2022-09-21T17:16:14;2.70;;;0.90;;
39654;SDS011;25336;59.944;11.010;2022-09-21T17:18:46;0.70;;;0.70;;
39654;SDS011;25336;59.944;11.010;2022-09-21T17:21:12;0.70;;;0.70;;
39654;SDS011;25336;59.944;11.010;2022-09-21T17:23:39;3.53;;;1.10;;
39654;SDS011;25336;59.944;11.010;2022-09-21T17:26:13;2.58;;;0.90;;
39654;SDS011;25336;59.944;11.010;2022-09-21T17:28:41;1.92;;;0.90;;
39654;SDS011;25336;59.944;11.010;2022-09-21T17:31:11;0.95;;;0.70;;
39654;SDS011;25336;59.944;11.010;2022-09-21T17:33:39;2.38;;;0.90;;
39654;SDS011;25336;59.944;11.010;2022-09-21T17:36:05;3.53;;;1.33;;
39654;SDS011;25336;59.944;11.010;2022-09-21T17:38:33;1.45;;;1.17;;
39654;SDS011;25336;59.944;11.010;2022-09-21T17:41:00;1.20;;;1.10;;
39654;SDS011;25336;59.944;11.010;2022-09-21T17:43:43;1.80;;;1.00;;
39654;SDS011;25336;59.944;11.010;2022-09-21T17:46:21;3.28;;;1.10;;
39654;SDS011;25336;59.944;11.010;2022-09-21T17:49:08;1.30;;;1.00;;
39654;SDS011;25336;59.944;11.010;2022-09-21T17:51:35;5.60;;;0.98;;
39654;SDS011;25336;59.944;11.010;2022-09-21T17:54:20;1.50;;;1.00;;
39654;SDS011;25336;59.944;11.010;2022-09-21T17:56:46;2.45;;;1.17;;
39654;SDS011;25336;59.944;11.010;2022-09-21T17:59:31;3.50;;;1.17;;
39654;SDS011;25336;59.944;11.010;2022-09-21T18:01:59;0.88;;;0.80;;
39654;SDS011;25336;59.944;11.010;2022-09-21T18:04:26;1.48;;;1.27;;
39654;SDS011;25336;59.944;11.010;2022-09-21T18:06:53;1.40;;;1.30;;
39654;SDS011;25336;59.944;11.010;2022-09-21T18:09:19;4.10;;;2.22;;
39654;SDS011;25336;59.944;11.010;2022-09-21T18:11:58;2.80;;;2.20;;
39654;SDS011;25336;59.944;11.010;2022-09-21T18:14:42;2.42;;;1.90;;
39654;SDS011;25336;59.944;11.010;2022-09-21T18:22:52;1.77;;;1.20;;
39654;SDS011;25336;59.944;11.010;2022-09-21T18:25:28;1.40;;;1.30;;
39654;SDS011;25336;59.944;11.010;2022-09-21T18:27:57;7.38;;;1.30;;
39654;SDS011;25336;59.944;11.010;2022-09-21T18:30:27;1.13;;;1.13;;
39654;SDS011;25336;59.944;11.010;2022-09-21T18:43:34;2.90;;;2.38;;
39654;SDS011;25336;59.944;11.010;2022-09-21T18:46:44;2.53;;;2.03;;
39654;SDS011;25336;59.944;11.010;2022-09-21T18:55:26;13.43;;;6.32;;
39654;SDS011;25336;59.944;11.010;2022-09-21T18:57:56;8.20;;;4.35;;
39654;SDS011;25336;59.944;11.010;2022-09-21T19:00:23;2.63;;;2.35;;
39654;SDS011;25336;59.944;11.010;2022-09-21T19:02:56;7.60;;;4.78;;
39654;SDS011;25336;59.944;11.010;2022-09-21T19:05:22;6.63;;;5.22;;
39654;SDS011;25336;59.944;11.010;2022-09-21T19:08:01;13.27;;;5.68;;
39654;SDS011;25336;59.944;11.010;2022-09-21T19:10:35;8.07;;;5.05;;
39654;SDS011;25336;59.944;11.010;2022-09-21T19:24:30;3.03;;;2.40;;
39654;SDS011;25336;59.944;11.010;2022-09-21T19:27:21;5.43;;;2.30;;
39654;SDS011;25336;59.944;11.010;2022-09-21T19:29:58;2.75;;;1.85;;
39654;SDS011;25336;59.944;11.010;2022-09-21T19:34:58;3.63;;;2.22;;
39654;SDS011;25336;59.944;11.010;2022-09-21T19:37:47;2.92;;;2.70;;
39654;SDS011;25336;59.944;11.010;2022-09-21T19:40:15;3.83;;;2.20;;
39654;SDS011;25336;59.944;11.010;2022-09-21T19:42:47;1.63;;;1.52;;